New Harbor, ME (Heathkit)

43° 52' 34"N, 69° 29' 40"W, Elevation 65 ft.
Eastern Time

Hourly observations for the last 72 hours

Date Time Temperature (°F) Humi-
dity

(%)
Wind
(mph)
Pressure Rain (in)
Air Dew 6 Hour 1 Hr 3 Hr 6 Hr Day
Alt
(in)
Sea
Level

(mb)
Max Min
15 00:00 18 12 77 SW 7 G 17 30.40 1029.5 0.00
14 23:00 18 12 77 SSW 4 G 20 30.38 1028.8 0.00
14 22:00 18 11 75 SSW 6 G 15 30.37 1028.5 0.00
14 21:00 19 12 74 SW 5 G 15 30.35 1027.8 0.00
14 20:00 19 12 73 SSW 7 G 17 30.33 1027.1 0.00
14 19:00 20 12 26 16 70 SW 11 G 26 30.29 1025.8 0.00
14 18:00 20 11 68 SSW 11 G 26 30.25 1024.4 0.00
14 17:00 21 12 67 SSW 7 G 25 30.22 1023.4 0.00
14 16:00 22 12 66 SW 4 G 26 30.18 1022.0 0.00
14 15:00 23 13 64 SW 8 G 22 30.13 1020.4 0.00
14 14:00 24 12 60 SSW 10 G 25 30.09 1019.0 0.00
14 13:00 26 14 27 19 61 SSW 9 G 23 30.06 1018.0 0.00
14 12:00 26 13 58 S 13 G 34 30.03 1017.0 0.00
14 11:00 27 14 58 SW 10 G 22 30.01 1016.3 0.00
14 10:00 25 14 63 SSW 14 G 40 29.99 1015.6 0.00
14 09:00 24 14 65 SW 12 G 31 29.98 1015.3 0.00
14 08:00 24 14 66 SW 15 G 29 29.97 1014.9 0.00
14 07:00 23 15 35 19 70 SSW 10 G 29 29.94 1013.9 0.00
14 06:00 24 17 73 SSW 7 G 22 29.90 1012.6 0.00
14 05:00 25 17 70 SSW 7 G 23 29.87 1011.5 0.00
14 04:00 26 18 70 SW 6 G 23 29.83 1010.2 0.00
14 03:00 27 18 67 SSW 13 G 31 29.80 1009.2 0.00
14 02:00 30 21 69 SSW 12 G 34 29.74 1007.1 0.00
14 01:00 34 29 39 30 83 SW 4 G 18 29.69 1005.5 0.00
14 00:00 37 32 83 SW 10 G 26 29.66 1004.4 1.36
13 23:00 38 36 93 SSW 5 G 20 29.62 1003.1 1.36
13 22:00 38 38 99 SW 2 G 5 29.58 1001.7 1.36
13 21:00 39 38 98 SSW 5 G 15 29.55 1000.7 1.36
13 20:00 39 39 99 SSW 7 G 14 29.54 1000.4 1.36
13 19:00 39 39 50 34 99 SSW 6 G 15 29.49 998.7 0.35 1.36
13 18:00 39 39 99 SSW 8 G 23 29.49 998.7 1.36
13 17:00 40 40 99 SW 11 G 22 29.45 997.3 1.36
13 16:00 49 49 99 S 5 G 11 29.44 997.0 0.04 0.35 1.36
13 15:00 49 49 99 ESE 3 G 9 29.49 998.7 0.16 1.31
13 14:00 49 49 99 ESE 6 G 10 29.55 1000.7 0.15 1.16
13 13:00 49 49 50 37 99 SSE 8 G 24 29.64 1003.8 0.17 0.47 0.76 1.00
13 12:00 50 50 99 S 11 G 30 29.70 1005.8 0.15 0.84
13 11:00 48 48 99 SSE 9 G 25 29.77 1008.2 0.15 0.68
13 10:00 46 46 99 SE 7 G 14 29.87 1011.5 0.10 0.29 0.54
13 09:00 45 45 99 SE 7 G 16 29.95 1014.3 0.13 0.43
13 08:00 42 42 99 SE 5 G 14 30.01 1016.3 0.06 0.31
13 07:00 42 42 45 34 99 SSE 8 G 19 30.05 1017.6 0.05 0.20 0.25 0.25
13 06:00 41 41 99 SSE 9 G 19 30.10 1019.3 0.08 0.19
13 05:00 39 39 99 ESE 2 G 4 30.13 1020.4 0.07 0.12
13 04:00 40 40 99 SSE 2 G 2 30.14 1020.7 0.03 0.05 0.05
13 03:00 41 41 99 SW 2 G 6 30.17 1021.7 0.02 0.02
13 02:00 43 40 88 SSW 1 G 10 30.20 1022.7 0.00
13 01:00 45 38 46 29 76 SSW 3 G 8 30.21 1023.1 0.00
13 00:00 44 39 81 S 5 G 9 30.21 1023.1 0.00
12 23:00 37 36 98 S 3 G 8 30.23 1023.7 0.00
12 22:00 33 33 99 ESE 0 G 2 30.24 1024.1 0.00
12 21:00 32 32 99 SSW 2 G 2 30.24 1024.1 0.00
12 20:00 31 30 97 S 1 G 3 30.23 1023.7 0.00
12 19:00 31 30 43 29 96 SE 0 G 2 30.25 1024.4 0.00
12 18:00 30 28 94 SSE 0 G 1 30.26 1024.8 0.00
12 17:00 33 30 87 SSE 0 G 2 30.26 1024.8 0.00
12 16:00 39 31 74 SSW 1 G 7 30.24 1024.1 0.00
12 15:00 42 32 68 S 3 G 10 30.22 1023.4 0.00
12 14:00 42 30 63 SW 4 G 7 30.21 1023.1 0.00
12 13:00 42 30 44 27 61 SW 4 G 9 30.21 1023.1 0.00
12 12:00 42 29 60 SSW 5 G 12 30.22 1023.4 0.00
12 11:00 41 29 63 SW 4 G 12 30.23 1023.7 0.00
12 10:00 36 25 64 SW 3 G 8 30.24 1024.1 0.00
12 09:00 33 25 71 SW 4 G 11 30.24 1024.1 0.00
12 08:00 31 24 75 SSW 2 G 7 30.25 1024.4 0.00
12 07:00 29 23 30 24 77 SW 2 G 6 30.24 1024.1 0.00
12 06:00 29 22 76 S 3 G 12 30.23 1023.7 0.00
12 05:00 29 22 76 SSW 4 G 9 30.22 1023.4 0.00
12 04:00 28 21 76 SW 3 G 6 30.20 1022.7 0.00
12 03:00 27 21 78 SE 1 G 6 30.19 1022.4 0.00
12 02:00 29 21 71 SSW 3 G 6 30.19 1022.4 0.00
12 01:00 28 20 31 23 72 SW 3 G 7 30.17 1021.7 0.00

Data generated by WxSolution Version 1.9.1.5, Build 2018.05.20.